createdAt,value
2022-07-30T18:07:56.476Z,99725.44
2022-07-30T18:09:58.156Z,99729.97
2022-07-30T18:12:00.213Z,99722.22
2022-07-30T18:14:03.440Z,99736.28
2022-07-30T18:16:05.608Z,99732.41
2022-07-30T18:18:07.746Z,99727.63
2022-07-30T18:20:10.158Z,99729.66
2022-07-30T18:22:14.644Z,99730.44
2022-07-30T18:24:16.772Z,99728.19
2022-07-30T18:26:18.517Z,99739.63
2022-07-30T18:28:21.019Z,99735.16
2022-07-30T18:30:22.939Z,99736.94
2022-07-30T18:32:25.174Z,99739.50
2022-07-30T18:34:26.958Z,99739.78
2022-07-30T18:36:28.703Z,99747.91
2022-07-30T18:38:30.449Z,99743.63
2022-07-30T18:40:32.411Z,99753.50
2022-07-30T18:42:34.109Z,99735.72
2022-07-30T18:44:35.843Z,99743.00
2022-07-30T18:46:37.558Z,99747.31
2022-07-30T18:48:39.262Z,99744.72
2022-07-30T18:50:40.923Z,99750.22
2022-07-30T18:52:42.872Z,99747.94
2022-07-30T18:54:44.564Z,99754.53
2022-07-30T18:56:46.253Z,99748.75
2022-07-30T18:58:47.978Z,99746.81
2022-07-30T19:00:50.097Z,99753.41
2022-07-30T19:02:51.782Z,99761.03
2022-07-30T19:04:53.755Z,99760.84
2022-07-30T19:06:55.490Z,99760.50
2022-07-30T19:08:57.735Z,99763.50
2022-07-30T19:10:59.917Z,99755.72
2022-07-30T19:13:02.246Z,99759.63
2022-07-30T19:15:04.333Z,99763.03
2022-07-30T19:17:13.687Z,99760.03
2022-07-30T19:19:16.916Z,99754.91
2022-07-30T19:21:18.617Z,99753.06
2022-07-30T19:23:20.590Z,99748.75
2022-07-30T19:25:22.272Z,99740.28
2022-07-30T19:27:23.914Z,99745.72
2022-07-30T19:29:25.597Z,99750.56
2022-07-30T19:31:27.460Z,99761.53
2022-07-30T19:33:29.107Z,99758.69
2022-07-30T19:35:30.797Z,99757.00
2022-07-30T19:37:32.430Z,99758.19
2022-07-30T19:39:34.946Z,99766.84
2022-07-30T19:41:40.906Z,99765.88
2022-07-30T19:43:43.105Z,99768.63
2022-07-30T19:45:58.418Z,99778.72
2022-07-30T19:48:00.491Z,99777.78
2022-07-30T19:50:02.366Z,99789.59
2022-07-30T19:52:22.723Z,99795.00
2022-07-30T19:54:25.770Z,99793.19
2022-07-30T19:56:28.289Z,99790.81
2022-07-30T19:58:31.697Z,99801.63
2022-07-30T20:00:35.818Z,99807.63
2022-07-30T20:02:37.578Z,99800.03
2022-07-30T20:04:43.800Z,99808.38
2022-07-30T20:06:46.157Z,99812.09
2022-07-30T20:08:49.694Z,99811.91
2022-07-30T20:10:51.593Z,99823.03
2022-07-30T20:12:53.254Z,99821.88
2022-07-30T20:14:58.627Z,99829.25
2022-07-30T20:17:02.224Z,99831.59
2022-07-30T20:19:04.855Z,99824.69
2022-07-30T20:21:10.162Z,99807.53
2022-07-30T20:23:15.910Z,99797.50
2022-07-30T20:25:19.114Z,99815.28
2022-07-30T20:27:37.327Z,99833.59
2022-07-30T20:29:40.704Z,99816.56
2022-07-30T20:31:43.506Z,99818.13
2022-07-30T20:33:50.241Z,99838.25
2022-07-30T20:35:52.843Z,99839.84
2022-07-30T20:37:56.598Z,99841.72
2022-07-30T20:39:58.401Z,99831.72
2022-07-30T20:42:09.326Z,99828.34
2022-07-30T20:44:14.961Z,99840.44
2022-07-30T20:46:25.392Z,99851.13
2022-07-30T20:48:34.537Z,99836.38
2022-07-30T20:50:39.013Z,99847.81
2022-07-30T20:52:46.568Z,99844.13
2022-07-30T20:54:49.757Z,99850.38
2022-07-30T20:56:51.596Z,99846.44
2022-07-30T20:58:53.262Z,99845.66
2022-07-30T21:00:57.330Z,99853.03
2022-07-30T21:02:59.527Z,99858.22
2022-07-30T21:05:05.598Z,99860.13
2022-07-30T21:07:07.941Z,99860.75
2022-07-30T21:09:10.146Z,99859.53
2022-07-30T21:11:14.519Z,99867.50
2022-07-30T21:13:16.469Z,99866.78
2022-07-30T21:15:23.426Z,99868.72
2022-07-30T21:17:26.080Z,99877.81
2022-07-30T21:19:29.916Z,99876.19
2022-07-30T21:21:41.654Z,99875.88
2022-07-30T21:23:49.701Z,99883.00
2022-07-30T21:26:00.803Z,99872.91
2022-07-30T21:28:05.057Z,99874.50
2022-07-30T21:30:07.550Z,99888.31
2022-07-30T21:32:10.134Z,99882.28
2022-07-30T21:34:13.693Z,99875.97
2022-07-30T21:36:15.464Z,99875.34
2022-07-30T21:38:17.142Z,99883.41
2022-07-30T21:40:24.729Z,99876.78
2022-07-30T21:42:30.254Z,99879.75
2022-07-30T21:44:32.164Z,99886.03
2022-07-30T21:46:33.794Z,99888.47
2022-07-30T21:48:35.523Z,99870.50
2022-07-30T21:50:41.824Z,99876.94
2022-07-30T21:52:45.126Z,99877.91
2022-07-30T21:54:50.487Z,99887.03
2022-07-30T21:56:52.221Z,99891.44
2022-07-30T21:58:58.189Z,99887.75
2022-07-30T22:01:16.959Z,99889.44
2022-07-30T22:04:01.688Z,99888.00
2022-07-30T22:05:42.574Z,99900.72
2022-07-30T22:07:44.245Z,99898.88
2022-07-30T22:09:46.162Z,99894.78
2022-07-30T22:11:47.868Z,99898.31
2022-07-30T22:16:11.197Z,99887.94
2022-07-30T22:18:16.334Z,99882.75
2022-07-30T22:20:22.644Z,99885.47
2022-07-30T22:22:26.923Z,99885.75
2022-07-30T22:24:31.441Z,99894.50
2022-07-30T22:26:33.242Z,99892.28
2022-07-30T22:28:35.104Z,99891.25
2022-07-30T22:30:39.640Z,99894.38
2022-07-30T22:32:41.660Z,99878.13
2022-07-30T22:34:44.854Z,99884.63
2022-07-30T22:36:46.798Z,99891.53
2022-07-30T22:38:58.497Z,99875.63
2022-07-30T22:41:01.596Z,99888.22
2022-07-30T22:43:09.421Z,99871.81
2022-07-30T22:45:14.252Z,99871.81
2022-07-30T22:47:18.913Z,99877.84
2022-07-30T22:49:26.032Z,99872.59
2022-07-30T22:51:58.824Z,99865.50
2022-07-30T22:54:13.232Z,99865.75
2022-07-30T22:56:15.745Z,99867.69
2022-07-30T22:58:18.766Z,99870.97
2022-07-30T23:02:46.914Z,99881.53
2022-07-30T23:04:48.595Z,99882.34
2022-07-30T23:06:51.483Z,99865.53
2022-07-30T23:08:53.141Z,99871.50
2022-07-30T23:10:54.996Z,99879.97
2022-07-30T23:12:32.162Z,99892.81
2022-07-30T23:12:33.896Z,99865.50
2022-07-30T23:12:56.690Z,99878.88
2022-07-30T23:14:58.797Z,99870.44
2022-07-30T23:17:00.465Z,99884.88
2022-07-30T23:19:02.988Z,99875.31
2022-07-30T23:21:04.991Z,99875.25
2022-07-30T23:23:06.662Z,99867.63
2022-07-30T23:25:10.577Z,99856.59
2022-07-30T23:27:12.403Z,99859.66
2022-07-30T23:29:15.873Z,99861.81
2022-07-30T23:31:17.584Z,99858.25
2022-07-30T23:33:19.218Z,99857.75
2022-07-30T23:35:21.161Z,99865.31
2022-07-30T23:37:22.878Z,99861.53
2022-07-30T23:39:24.531Z,99865.94
2022-07-30T23:41:29.543Z,99861.16
2022-07-30T23:43:35.428Z,99870.13
2022-07-30T23:45:37.086Z,99863.56
2022-07-30T23:48:01.687Z,99858.94
2022-07-30T23:50:00.826Z,99857.00
2022-07-30T23:52:02.488Z,99858.03
2022-07-30T23:54:04.384Z,99860.25
2022-07-30T23:56:06.053Z,99857.31
2022-07-30T23:58:08.008Z,99845.78
